createdAt,value
2023-05-18T00:00:23.540Z,25.22
2023-05-18T00:05:34.342Z,25.17
2023-05-18T00:10:37.699Z,25.10
2023-05-18T00:15:40.575Z,25.03
2023-05-18T00:20:44.817Z,25.00
2023-05-18T00:25:47.606Z,24.97
2023-05-18T00:30:50.484Z,24.92
2023-05-18T00:35:56.681Z,24.83
2023-05-18T00:40:59.510Z,24.76
2023-05-18T00:46:02.454Z,24.72
2023-05-18T00:51:07.211Z,24.70
2023-05-18T00:56:12.173Z,24.66
2023-05-18T01:01:17.725Z,24.62
2023-05-18T01:06:21.995Z,24.56
2023-05-18T01:11:32.797Z,24.54
2023-05-18T01:16:44.729Z,24.46
2023-05-18T01:21:58.850Z,24.40
2023-05-18T01:27:07.867Z,24.38
2023-05-18T01:32:11.220Z,24.33
2023-05-18T01:37:14.269Z,24.30
2023-05-18T01:42:26.059Z,24.24
2023-05-18T01:47:31.580Z,24.22
2023-05-18T01:52:39.007Z,24.21
2023-05-18T01:57:46.231Z,24.18
2023-05-18T02:02:51.081Z,24.15
2023-05-18T02:07:54.563Z,24.10
2023-05-18T02:12:58.772Z,24.13
2023-05-18T02:18:03.086Z,24.10
2023-05-18T02:23:07.782Z,24.08
2023-05-18T02:28:11.978Z,24.08
2023-05-18T02:33:14.728Z,24.11
2023-05-18T02:38:17.514Z,24.08
2023-05-18T02:43:21.849Z,24.07
2023-05-18T02:48:24.803Z,24.05
2023-05-18T02:53:27.639Z,24.03
2023-05-18T02:58:38.150Z,23.96
2023-05-18T03:03:47.939Z,23.96
2023-05-18T03:08:54.255Z,23.92
2023-05-18T03:14:01.413Z,23.89
2023-05-18T03:19:04.375Z,23.83
2023-05-18T03:24:14.905Z,23.82
2023-05-18T03:29:22.188Z,23.77
2023-05-18T03:34:25.861Z,23.73
2023-05-18T03:39:28.719Z,23.71
2023-05-18T03:44:32.958Z,23.67
2023-05-18T03:49:36.254Z,23.67
2023-05-18T03:54:42.655Z,23.66
2023-05-18T03:59:47.089Z,23.65
2023-05-18T04:04:49.969Z,23.63
2023-05-18T04:09:54.885Z,23.63
2023-05-18T04:14:59.198Z,23.64
2023-05-18T04:20:06.392Z,23.65
2023-05-18T04:25:10.866Z,23.64
2023-05-18T04:30:18.831Z,23.63
2023-05-18T04:35:21.901Z,23.63
2023-05-18T04:40:25.321Z,23.63
2023-05-18T04:45:30.194Z,23.63
2023-05-18T04:50:33.613Z,23.63
2023-05-18T04:55:36.734Z,23.65
2023-05-18T05:00:44.709Z,23.64
2023-05-18T05:05:47.678Z,23.65
2023-05-18T05:10:50.601Z,23.66
2023-05-18T05:15:55.264Z,23.67
2023-05-18T05:20:59.305Z,23.68
2023-05-18T05:26:02.516Z,23.70
2023-05-18T05:31:07.187Z,23.70
2023-05-18T05:36:10.874Z,23.69
2023-05-18T05:41:13.826Z,23.72
2023-05-18T05:46:18.563Z,23.74
2023-05-18T05:51:21.672Z,23.73
2023-05-18T05:56:24.591Z,23.74
2023-05-18T06:01:29.080Z,23.74
2023-05-18T06:06:32.528Z,23.79
2023-05-18T06:11:35.948Z,23.81
2023-05-18T06:16:40.317Z,23.83
2023-05-18T06:21:43.459Z,23.85
2023-05-18T06:26:46.696Z,23.87
2023-05-18T06:32:06.855Z,23.89
2023-05-18T06:37:12.123Z,23.88
2023-05-18T06:42:14.933Z,23.89
2023-05-18T06:47:28.586Z,23.92
2023-05-18T06:52:32.510Z,23.93
2023-05-18T06:57:35.672Z,23.95
2023-05-18T07:02:43.342Z,23.93
2023-05-18T07:07:47.566Z,22.70
2023-05-18T07:12:51.064Z,22.15
2023-05-18T07:17:55.540Z,22.41
2023-05-18T07:28:01.778Z,21.77
2023-05-18T07:33:06.196Z,21.99
2023-05-18T07:38:09.067Z,23.06
2023-05-18T07:43:11.956Z,23.26
2023-05-18T07:48:16.316Z,23.35
2023-05-18T07:53:19.087Z,23.41
2023-05-18T07:58:22.283Z,23.43
2023-05-18T08:03:26.789Z,23.46
2023-05-18T08:08:29.895Z,23.49
2023-05-18T08:13:33.992Z,23.50
2023-05-18T08:18:38.634Z,23.54
2023-05-18T08:23:41.467Z,23.61
2023-05-18T08:28:45.314Z,23.65
2023-05-18T08:33:49.911Z,23.64
2023-05-18T08:38:53.765Z,23.65
2023-05-18T08:44:02.477Z,23.66
2023-05-18T08:49:07.497Z,23.69
2023-05-18T08:54:12.270Z,23.71
2023-05-18T08:59:19.688Z,23.72
2023-05-18T09:04:25.107Z,23.78
2023-05-18T09:09:28.145Z,23.81
2023-05-18T09:14:33.581Z,23.81
2023-05-18T09:19:37.939Z,23.84
2023-05-18T09:24:40.884Z,23.85
2023-05-18T09:29:54.033Z,23.91
2023-05-18T09:35:06.128Z,23.91
2023-05-18T09:40:10.205Z,23.92
2023-05-18T09:45:19.103Z,23.95
2023-05-18T09:50:25.658Z,23.95
2023-05-18T09:55:28.765Z,23.94
2023-05-18T10:00:32.815Z,23.94
2023-05-18T10:05:43.576Z,23.94
2023-05-18T10:10:48.460Z,23.98
2023-05-18T10:15:54.215Z,23.96
2023-05-18T10:21:02.321Z,23.99
2023-05-18T10:26:07.468Z,23.99
2023-05-18T10:31:10.373Z,24.00
2023-05-18T10:36:14.905Z,24.06
2023-05-18T10:41:22.522Z,24.09
2023-05-18T10:46:27.268Z,24.10
2023-05-18T10:51:41.195Z,24.11
2023-05-18T10:56:50.381Z,24.10
2023-05-18T11:01:55.381Z,24.12
2023-05-18T11:07:03.095Z,24.16
2023-05-18T11:12:13.001Z,24.15
2023-05-18T11:17:20.619Z,24.16
2023-05-18T11:22:24.903Z,24.15
2023-05-18T11:27:30.067Z,24.21
2023-05-18T11:32:34.124Z,24.23
2023-05-18T11:37:51.277Z,24.20
2023-05-18T11:42:59.490Z,24.16
2023-05-18T11:48:03.610Z,24.31
2023-05-18T11:53:08.477Z,24.33
2023-05-18T11:58:11.401Z,24.25
2023-05-18T12:03:14.795Z,24.25
2023-05-18T12:08:20.066Z,24.36
2023-05-18T12:13:24.705Z,24.45
2023-05-18T12:18:29.574Z,24.44
2023-05-18T12:23:39.881Z,24.46
2023-05-18T12:28:42.731Z,24.52
2023-05-18T12:33:45.629Z,24.54
2023-05-18T12:38:53.292Z,24.58
2023-05-18T12:43:58.422Z,24.62
2023-05-18T12:49:04.347Z,24.65
2023-05-18T12:54:09.459Z,24.63
2023-05-18T12:59:12.282Z,24.67
2023-05-18T13:04:15.501Z,24.64
2023-05-18T13:09:20.037Z,24.56
2023-05-18T13:14:23.802Z,24.49
2023-05-18T13:19:27.376Z,24.58
2023-05-18T13:24:32.039Z,24.58
2023-05-18T13:29:34.964Z,24.56
2023-05-18T13:34:37.782Z,24.54
2023-05-18T13:39:42.369Z,24.57
2023-05-18T13:44:45.166Z,24.54
2023-05-18T13:49:48.007Z,24.49
2023-05-18T13:54:52.321Z,24.50
2023-05-18T13:59:55.105Z,24.45
2023-05-18T14:04:58.587Z,24.47
2023-05-18T14:10:03.141Z,24.51
2023-05-18T14:15:07.189Z,24.46
2023-05-18T14:20:11.106Z,24.43
2023-05-18T14:25:15.257Z,24.42
2023-05-18T14:30:18.462Z,24.49
2023-05-18T14:35:21.506Z,24.47
2023-05-18T14:40:25.879Z,24.41
2023-05-18T14:45:28.711Z,24.46
2023-05-18T14:50:32.151Z,24.45
2023-05-18T14:55:37.233Z,24.39
2023-05-18T15:00:40.162Z,24.47
2023-05-18T15:05:44.372Z,24.48
2023-05-18T15:10:50.005Z,24.41
2023-05-18T15:15:53.028Z,24.37
2023-05-18T15:20:55.988Z,24.49
2023-05-18T15:26:00.516Z,24.51
2023-05-18T15:31:04.608Z,24.52
2023-05-18T15:36:07.934Z,24.45
2023-05-18T15:41:12.151Z,24.41
2023-05-18T15:46:15.141Z,24.23
2023-05-18T15:51:17.943Z,24.42
2023-05-18T15:56:22.287Z,24.58
2023-05-18T16:01:25.245Z,24.74
2023-05-18T16:06:28.322Z,24.90
2023-05-18T16:11:35.559Z,24.88
2023-05-18T16:16:38.655Z,25.12
2023-05-18T16:21:41.587Z,25.09
2023-05-18T16:26:45.840Z,25.12
2023-05-18T16:31:48.738Z,25.21
2023-05-18T16:36:51.766Z,25.26
2023-05-18T16:41:55.966Z,25.31
2023-05-18T16:46:59.685Z,25.35
2023-05-18T16:52:03.603Z,25.38
2023-05-18T16:57:07.946Z,25.42
2023-05-18T17:02:13.324Z,25.51
2023-05-18T17:07:16.836Z,25.49
2023-05-18T17:12:23.131Z,25.52
2023-05-18T17:17:26.105Z,25.57
2023-05-18T17:22:29.090Z,25.61
2023-05-18T17:27:33.742Z,25.66
2023-05-18T17:32:38.759Z,25.68
2023-05-18T17:37:42.044Z,25.72
2023-05-18T17:42:46.596Z,25.73
2023-05-18T17:47:49.597Z,25.80
2023-05-18T17:52:52.665Z,25.75
2023-05-18T17:57:59.636Z,25.91
2023-05-18T18:03:02.679Z,25.94
2023-05-18T18:08:05.685Z,26.01
2023-05-18T18:13:09.937Z,25.99
2023-05-18T18:18:13.142Z,26.13
2023-05-18T18:23:16.610Z,26.18
2023-05-18T18:28:21.041Z,26.21
2023-05-18T18:33:25.716Z,26.28
2023-05-18T18:38:29.077Z,26.31
2023-05-18T18:43:35.298Z,26.27
2023-05-18T18:48:38.157Z,26.35
2023-05-18T18:53:41.089Z,26.38
2023-05-18T18:58:45.610Z,26.29
2023-05-18T19:03:48.413Z,26.36
2023-05-18T19:08:52.150Z,26.38
2023-05-18T19:13:56.538Z,26.44
2023-05-18T19:18:59.464Z,26.36
2023-05-18T19:24:02.326Z,26.45
2023-05-18T19:29:06.519Z,26.44
2023-05-18T19:34:09.388Z,26.49
2023-05-18T19:39:12.257Z,26.52
2023-05-18T19:44:16.809Z,26.47
2023-05-18T19:49:19.704Z,26.42
2023-05-18T19:54:22.624Z,26.48
2023-05-18T19:59:26.876Z,26.54
2023-05-18T20:04:30.076Z,26.51
2023-05-18T20:09:32.954Z,26.49
2023-05-18T20:14:38.890Z,26.59
2023-05-18T20:19:49.912Z,26.50
2023-05-18T20:24:53.587Z,26.57
2023-05-18T20:29:57.787Z,26.65
2023-05-18T20:35:00.674Z,26.62
2023-05-18T20:40:08.911Z,26.69
2023-05-18T20:45:13.755Z,26.67
2023-05-18T20:50:16.643Z,26.68
2023-05-18T20:55:20.716Z,26.82
2023-05-18T21:00:25.139Z,26.77
2023-05-18T21:05:27.984Z,26.73
2023-05-18T21:10:32.026Z,26.74
2023-05-18T21:15:37.407Z,26.78
2023-05-18T21:20:40.408Z,26.80
2023-05-18T21:25:43.252Z,26.74
2023-05-18T21:30:48.275Z,26.76
2023-05-18T21:35:51.345Z,26.76
2023-05-18T21:40:56.027Z,26.70
2023-05-18T21:46:00.384Z,26.80
2023-05-18T21:51:04.174Z,26.76
2023-05-18T21:56:07.696Z,26.77
2023-05-18T22:01:11.895Z,26.78
2023-05-18T22:06:14.860Z,26.78
2023-05-18T22:11:17.690Z,26.81
2023-05-18T22:16:21.943Z,26.83
2023-05-18T22:21:24.754Z,26.83
2023-05-18T22:26:27.667Z,26.83
2023-05-18T22:31:32.632Z,26.77
2023-05-18T22:36:36.232Z,26.76
2023-05-18T22:41:39.093Z,26.73
2023-05-18T22:46:43.454Z,26.68
2023-05-18T22:51:47.530Z,26.62
2023-05-18T22:56:50.464Z,26.57
2023-05-18T23:01:54.870Z,26.53
2023-05-18T23:06:57.972Z,26.48
2023-05-18T23:12:01.251Z,26.44
2023-05-18T23:17:06.487Z,26.30
2023-05-18T23:22:09.326Z,26.27
2023-05-18T23:27:12.197Z,26.23
2023-05-18T23:32:16.407Z,26.16
2023-05-18T23:37:20.933Z,26.10
2023-05-18T23:42:25.430Z,26.01
2023-05-18T23:47:30.122Z,25.98
2023-05-18T23:52:34.121Z,25.91
2023-05-18T23:57:37.452Z,25.87
